sensor_id;sensor_type;location;lat;lon;timestamp;temperature;humidity
37910;DHT22;23741;49.446;8.754;2022-08-16T00:01:07;23.40;53.00
37910;DHT22;23741;49.446;8.754;2022-08-16T00:03:10;23.40;52.60
37910;DHT22;23741;49.446;8.754;2022-08-16T00:05:15;23.40;52.80
37910;DHT22;23741;49.446;8.754;2022-08-16T00:07:18;23.40;53.50
37910;DHT22;23741;49.446;8.754;2022-08-16T00:09:21;23.40;53.40
37910;DHT22;23741;49.446;8.754;2022-08-16T00:11:23;23.30;52.80
37910;DHT22;23741;49.446;8.754;2022-08-16T00:13:26;23.30;53.40
37910;DHT22;23741;49.446;8.754;2022-08-16T00:15:43;23.30;53.60
37910;DHT22;23741;49.446;8.754;2022-08-16T00:17:54;23.30;53.30
37910;DHT22;23741;49.446;8.754;2022-08-16T00:19:57;23.30;53.60
37910;DHT22;23741;49.446;8.754;2022-08-16T00:22:00;23.20;53.90
37910;DHT22;23741;49.446;8.754;2022-08-16T00:24:07;23.20;54.00
37910;DHT22;23741;49.446;8.754;2022-08-16T00:26:13;23.20;53.60
37910;DHT22;23741;49.446;8.754;2022-08-16T00:28:34;23.20;53.50
37910;DHT22;23741;49.446;8.754;2022-08-16T00:30:37;23.20;53.60
37910;DHT22;23741;49.446;8.754;2022-08-16T00:32:41;23.20;53.90
37910;DHT22;23741;49.446;8.754;2022-08-16T00:34:43;23.10;53.80
37910;DHT22;23741;49.446;8.754;2022-08-16T00:36:55;23.10;54.20
37910;DHT22;23741;49.446;8.754;2022-08-16T00:38:58;23.10;54.20
37910;DHT22;23741;49.446;8.754;2022-08-16T00:41:01;23.10;54.20
37910;DHT22;23741;49.446;8.754;2022-08-16T00:43:08;23.10;54.20
37910;DHT22;23741;49.446;8.754;2022-08-16T00:47:25;23.00;54.00
37910;DHT22;23741;49.446;8.754;2022-08-16T00:49:31;23.00;53.60
37910;DHT22;23741;49.446;8.754;2022-08-16T00:51:43;23.00;54.10
37910;DHT22;23741;49.446;8.754;2022-08-16T00:53:46;23.00;53.90
37910;DHT22;23741;49.446;8.754;2022-08-16T00:55:50;23.00;53.60
37910;DHT22;23741;49.446;8.754;2022-08-16T00:57:54;23.00;54.10
37910;DHT22;23741;49.446;8.754;2022-08-16T01:00:02;23.00;54.10
37910;DHT22;23741;49.446;8.754;2022-08-16T01:02:05;23.00;54.30
37910;DHT22;23741;49.446;8.754;2022-08-16T01:04:27;23.00;54.30
37910;DHT22;23741;49.446;8.754;2022-08-16T01:06:32;23.00;54.10
37910;DHT22;23741;49.446;8.754;2022-08-16T01:08:51;22.90;54.50
37910;DHT22;23741;49.446;8.754;2022-08-16T01:10:56;22.90;54.20
37910;DHT22;23741;49.446;8.754;2022-08-16T01:13:03;22.90;54.80
37910;DHT22;23741;49.446;8.754;2022-08-16T01:15:06;22.90;55.10
37910;DHT22;23741;49.446;8.754;2022-08-16T01:17:08;22.90;54.20
37910;DHT22;23741;49.446;8.754;2022-08-16T01:25:59;22.80;54.90
37910;DHT22;23741;49.446;8.754;2022-08-16T01:28:22;22.80;54.40
37910;DHT22;23741;49.446;8.754;2022-08-16T01:30:33;22.80;54.90
37910;DHT22;23741;49.446;8.754;2022-08-16T01:32:40;22.70;55.10
37910;DHT22;23741;49.446;8.754;2022-08-16T01:35:03;22.70;54.90
37910;DHT22;23741;49.446;8.754;2022-08-16T01:37:08;22.70;55.20
37910;DHT22;23741;49.446;8.754;2022-08-16T01:39:11;22.70;54.70
37910;DHT22;23741;49.446;8.754;2022-08-16T01:41:16;22.70;55.40
37910;DHT22;23741;49.446;8.754;2022-08-16T01:43:21;22.70;55.60
37910;DHT22;23741;49.446;8.754;2022-08-16T01:45:24;22.60;55.60
37910;DHT22;23741;49.446;8.754;2022-08-16T01:47:41;22.60;55.70
37910;DHT22;23741;49.446;8.754;2022-08-16T01:49:52;22.60;55.70
37910;DHT22;23741;49.446;8.754;2022-08-16T01:52:14;22.60;55.60
37910;DHT22;23741;49.446;8.754;2022-08-16T01:54:50;22.60;55.80
37910;DHT22;23741;49.446;8.754;2022-08-16T01:56:54;22.50;55.00
37910;DHT22;23741;49.446;8.754;2022-08-16T01:58:58;22.50;55.10
37910;DHT22;23741;49.446;8.754;2022-08-16T02:01:01;22.50;55.70
37910;DHT22;23741;49.446;8.754;2022-08-16T02:03:03;22.50;55.40
37910;DHT22;23741;49.446;8.754;2022-08-16T02:05:05;22.50;55.60
37910;DHT22;23741;49.446;8.754;2022-08-16T02:07:06;22.50;55.50
37910;DHT22;23741;49.446;8.754;2022-08-16T02:09:12;22.50;55.30
37910;DHT22;23741;49.446;8.754;2022-08-16T02:11:18;22.50;55.60
37910;DHT22;23741;49.446;8.754;2022-08-16T02:13:21;22.50;56.20
37910;DHT22;23741;49.446;8.754;2022-08-16T02:15:29;22.50;55.70
37910;DHT22;23741;49.446;8.754;2022-08-16T02:17:39;22.40;55.80
37910;DHT22;23741;49.446;8.754;2022-08-16T02:19:41;22.40;56.10
37910;DHT22;23741;49.446;8.754;2022-08-16T02:22:01;22.40;55.60
37910;DHT22;23741;49.446;8.754;2022-08-16T02:24:23;22.40;56.20
37910;DHT22;23741;49.446;8.754;2022-08-16T02:26:33;22.40;56.30
37910;DHT22;23741;49.446;8.754;2022-08-16T02:28:35;22.30;56.00
37910;DHT22;23741;49.446;8.754;2022-08-16T02:30:47;22.30;55.80
37910;DHT22;23741;49.446;8.754;2022-08-16T02:32:52;22.30;55.60
37910;DHT22;23741;49.446;8.754;2022-08-16T02:34:56;22.30;55.90
37910;DHT22;23741;49.446;8.754;2022-08-16T02:36:59;22.30;56.30
37910;DHT22;23741;49.446;8.754;2022-08-16T02:39:03;22.30;56.20
37910;DHT22;23741;49.446;8.754;2022-08-16T02:41:05;22.30;55.90
37910;DHT22;23741;49.446;8.754;2022-08-16T02:43:12;22.20;55.60
37910;DHT22;23741;49.446;8.754;2022-08-16T02:45:16;22.30;55.70
37910;DHT22;23741;49.446;8.754;2022-08-16T02:47:19;22.20;55.40
37910;DHT22;23741;49.446;8.754;2022-08-16T02:49:26;22.20;55.80
37910;DHT22;23741;49.446;8.754;2022-08-16T02:51:49;22.20;56.10
37910;DHT22;23741;49.446;8.754;2022-08-16T02:53:51;22.20;56.40
37910;DHT22;23741;49.446;8.754;2022-08-16T02:55:55;22.20;56.50
37910;DHT22;23741;49.446;8.754;2022-08-16T02:57:57;22.20;56.60
37910;DHT22;23741;49.446;8.754;2022-08-16T02:59:59;22.20;56.60
37910;DHT22;23741;49.446;8.754;2022-08-16T03:02:22;22.20;56.30
37910;DHT22;23741;49.446;8.754;2022-08-16T03:04:35;22.20;55.90
37910;DHT22;23741;49.446;8.754;2022-08-16T03:06:54;22.10;56.10
37910;DHT22;23741;49.446;8.754;2022-08-16T03:09:09;22.10;56.20
37910;DHT22;23741;49.446;8.754;2022-08-16T03:11:21;22.10;56.30
37910;DHT22;23741;49.446;8.754;2022-08-16T03:13:23;22.10;56.60
37910;DHT22;23741;49.446;8.754;2022-08-16T03:15:25;22.10;56.70
37910;DHT22;23741;49.446;8.754;2022-08-16T03:17:29;22.10;56.40
37910;DHT22;23741;49.446;8.754;2022-08-16T03:19:35;22.10;56.80
37910;DHT22;23741;49.446;8.754;2022-08-16T03:21:57;22.10;56.30
37910;DHT22;23741;49.446;8.754;2022-08-16T03:23:59;22.00;56.70
37910;DHT22;23741;49.446;8.754;2022-08-16T03:26:01;22.00;56.40
37910;DHT22;23741;49.446;8.754;2022-08-16T03:28:05;22.10;56.60
37910;DHT22;23741;49.446;8.754;2022-08-16T03:30:16;22.00;56.10
37910;DHT22;23741;49.446;8.754;2022-08-16T03:32:24;22.00;56.50
37910;DHT22;23741;49.446;8.754;2022-08-16T03:34:27;22.00;56.80
37910;DHT22;23741;49.446;8.754;2022-08-16T03:36:30;22.00;56.40
37910;DHT22;23741;49.446;8.754;2022-08-16T03:38:37;22.00;56.70
37910;DHT22;23741;49.446;8.754;2022-08-16T03:40:46;22.00;56.90
37910;DHT22;23741;49.446;8.754;2022-08-16T03:42:50;22.00;56.80
37910;DHT22;23741;49.446;8.754;2022-08-16T03:45:12;22.00;56.40
37910;DHT22;23741;49.446;8.754;2022-08-16T03:47:16;22.00;56.90
37910;DHT22;23741;49.446;8.754;2022-08-16T03:49:22;22.00;57.10
37910;DHT22;23741;49.446;8.754;2022-08-16T03:51:39;21.90;57.40
37910;DHT22;23741;49.446;8.754;2022-08-16T03:53:42;21.90;57.40
37910;DHT22;23741;49.446;8.754;2022-08-16T03:55:50;21.90;57.50
37910;DHT22;23741;49.446;8.754;2022-08-16T03:57:54;21.90;57.30
37910;DHT22;23741;49.446;8.754;2022-08-16T03:59:58;21.90;57.10
37910;DHT22;23741;49.446;8.754;2022-08-16T04:02:01;21.90;56.80
37910;DHT22;23741;49.446;8.754;2022-08-16T04:04:12;21.90;56.70
37910;DHT22;23741;49.446;8.754;2022-08-16T04:06:33;21.90;57.10
37910;DHT22;23741;49.446;8.754;2022-08-16T04:08:35;21.90;57.30
37910;DHT22;23741;49.446;8.754;2022-08-16T04:10:40;21.90;57.60
37910;DHT22;23741;49.446;8.754;2022-08-16T04:12:44;21.90;57.30
37910;DHT22;23741;49.446;8.754;2022-08-16T04:14:56;21.90;57.10
37910;DHT22;23741;49.446;8.754;2022-08-16T04:16:59;21.90;57.50
37910;DHT22;23741;49.446;8.754;2022-08-16T04:19:10;21.90;57.70
37910;DHT22;23741;49.446;8.754;2022-08-16T04:21:12;21.90;57.80
37910;DHT22;23741;49.446;8.754;2022-08-16T04:23:30;21.90;57.50
37910;DHT22;23741;49.446;8.754;2022-08-16T04:25:33;21.90;57.80
37910;DHT22;23741;49.446;8.754;2022-08-16T04:27:35;21.90;57.90
37910;DHT22;23741;49.446;8.754;2022-08-16T04:29:37;21.90;57.90
37910;DHT22;23741;49.446;8.754;2022-08-16T04:31:48;21.90;58.00
37910;DHT22;23741;49.446;8.754;2022-08-16T04:34:02;21.90;57.90
37910;DHT22;23741;49.446;8.754;2022-08-16T04:36:04;21.90;57.60
37910;DHT22;23741;49.446;8.754;2022-08-16T04:38:07;21.90;57.70
37910;DHT22;23741;49.446;8.754;2022-08-16T04:40:23;21.90;57.70
37910;DHT22;23741;49.446;8.754;2022-08-16T04:42:27;21.90;57.50
37910;DHT22;23741;49.446;8.754;2022-08-16T04:44:31;21.90;57.20
37910;DHT22;23741;49.446;8.754;2022-08-16T04:46:53;21.90;57.30
37910;DHT22;23741;49.446;8.754;2022-08-16T04:49:15;21.90;57.60
37910;DHT22;23741;49.446;8.754;2022-08-16T04:51:19;21.90;58.00
37910;DHT22;23741;49.446;8.754;2022-08-16T04:53:22;21.90;57.80
37910;DHT22;23741;49.446;8.754;2022-08-16T04:55:27;22.00;57.50
37910;DHT22;23741;49.446;8.754;2022-08-16T04:57:39;22.00;57.30
37910;DHT22;23741;49.446;8.754;2022-08-16T04:59:42;22.00;58.00
37910;DHT22;23741;49.446;8.754;2022-08-16T05:01:44;22.00;57.90
37910;DHT22;23741;49.446;8.754;2022-08-16T05:03:59;22.00;58.00
37910;DHT22;23741;49.446;8.754;2022-08-16T05:06:22;22.00;57.50
37910;DHT22;23741;49.446;8.754;2022-08-16T05:08:45;22.00;57.20
37910;DHT22;23741;49.446;8.754;2022-08-16T05:10:55;22.00;57.30
37910;DHT22;23741;49.446;8.754;2022-08-16T05:13:01;22.00;57.80
37910;DHT22;23741;49.446;8.754;2022-08-16T05:15:04;22.00;58.20
37910;DHT22;23741;49.446;8.754;2022-08-16T05:17:11;22.00;58.20
37910;DHT22;23741;49.446;8.754;2022-08-16T05:19:13;22.00;58.00
37910;DHT22;23741;49.446;8.754;2022-08-16T05:21:37;22.10;58.20
37910;DHT22;23741;49.446;8.754;2022-08-16T05:23:42;22.10;58.40
37910;DHT22;23741;49.446;8.754;2022-08-16T05:25:58;22.10;58.20
37910;DHT22;23741;49.446;8.754;2022-08-16T05:28:01;22.10;57.90
37910;DHT22;23741;49.446;8.754;2022-08-16T05:30:05;22.10;57.70
37910;DHT22;23741;49.446;8.754;2022-08-16T05:32:27;22.20;57.50
37910;DHT22;23741;49.446;8.754;2022-08-16T05:34:39;22.20;58.00
37910;DHT22;23741;49.446;8.754;2022-08-16T05:36:41;22.20;57.90
37910;DHT22;23741;49.446;8.754;2022-08-16T05:38:45;22.20;57.90
37910;DHT22;23741;49.446;8.754;2022-08-16T05:40:48;22.30;57.60
37910;DHT22;23741;49.446;8.754;2022-08-16T05:43:02;22.30;58.00
37910;DHT22;23741;49.446;8.754;2022-08-16T05:45:05;22.30;57.70
37910;DHT22;23741;49.446;8.754;2022-08-16T05:47:11;22.30;57.50
37910;DHT22;23741;49.446;8.754;2022-08-16T05:49:17;22.40;57.70
37910;DHT22;23741;49.446;8.754;2022-08-16T05:51:28;22.40;57.60
37910;DHT22;23741;49.446;8.754;2022-08-16T05:53:41;22.40;57.60
37910;DHT22;23741;49.446;8.754;2022-08-16T05:55:46;22.40;57.60
37910;DHT22;23741;49.446;8.754;2022-08-16T05:57:48;22.50;57.80
37910;DHT22;23741;49.446;8.754;2022-08-16T05:59:53;22.50;57.60
37910;DHT22;23741;49.446;8.754;2022-08-16T06:02:02;22.60;57.60
37910;DHT22;23741;49.446;8.754;2022-08-16T06:04:08;22.60;57.60
37910;DHT22;23741;49.446;8.754;2022-08-16T06:06:30;22.60;57.70
37910;DHT22;23741;49.446;8.754;2022-08-16T06:08:35;22.70;57.70
37910;DHT22;23741;49.446;8.754;2022-08-16T06:10:45;22.70;58.00
37910;DHT22;23741;49.446;8.754;2022-08-16T06:13:07;22.70;57.50
37910;DHT22;23741;49.446;8.754;2022-08-16T06:15:12;22.80;57.50
37910;DHT22;23741;49.446;8.754;2022-08-16T06:17:17;22.80;57.50
37910;DHT22;23741;49.446;8.754;2022-08-16T06:19:22;22.80;57.30
37910;DHT22;23741;49.446;8.754;2022-08-16T06:21:34;22.90;57.30
37910;DHT22;23741;49.446;8.754;2022-08-16T06:23:38;22.90;57.40
37910;DHT22;23741;49.446;8.754;2022-08-16T06:25:44;23.00;57.40
37910;DHT22;23741;49.446;8.754;2022-08-16T06:27:54;23.00;57.20
37910;DHT22;23741;49.446;8.754;2022-08-16T06:29:59;23.00;57.30
37910;DHT22;23741;49.446;8.754;2022-08-16T06:32:01;23.10;57.30
37910;DHT22;23741;49.446;8.754;2022-08-16T06:34:04;23.10;57.30
37910;DHT22;23741;49.446;8.754;2022-08-16T06:36:27;23.10;57.00
37910;DHT22;23741;49.446;8.754;2022-08-16T06:38:46;23.10;57.00
37910;DHT22;23741;49.446;8.754;2022-08-16T06:41:04;23.20;57.10
37910;DHT22;23741;49.446;8.754;2022-08-16T06:43:06;23.20;56.90
37910;DHT22;23741;49.446;8.754;2022-08-16T06:45:14;23.20;56.70
37910;DHT22;23741;49.446;8.754;2022-08-16T06:47:23;23.20;56.80
37910;DHT22;23741;49.446;8.754;2022-08-16T06:49:45;23.20;56.80
37910;DHT22;23741;49.446;8.754;2022-08-16T06:51:54;23.20;56.90
37910;DHT22;23741;49.446;8.754;2022-08-16T06:54:08;23.30;56.90
37910;DHT22;23741;49.446;8.754;2022-08-16T06:56:14;23.30;56.90
37910;DHT22;23741;49.446;8.754;2022-08-16T06:58:41;23.30;57.00
37910;DHT22;23741;49.446;8.754;2022-08-16T07:00:48;23.40;57.00
37910;DHT22;23741;49.446;8.754;2022-08-16T07:02:51;23.40;57.00
37910;DHT22;23741;49.446;8.754;2022-08-16T07:04:57;23.40;57.00
37910;DHT22;23741;49.446;8.754;2022-08-16T07:06:59;23.40;56.90
37910;DHT22;23741;49.446;8.754;2022-08-16T07:09:01;23.50;56.80
37910;DHT22;23741;49.446;8.754;2022-08-16T07:11:11;23.50;56.50
37910;DHT22;23741;49.446;8.754;2022-08-16T07:13:16;23.60;56.70
37910;DHT22;23741;49.446;8.754;2022-08-16T07:15:38;23.60;56.70
37910;DHT22;23741;49.446;8.754;2022-08-16T07:17:54;23.60;56.80
37910;DHT22;23741;49.446;8.754;2022-08-16T07:19:56;23.60;56.80
37910;DHT22;23741;49.446;8.754;2022-08-16T07:22:25;23.60;56.80
37910;DHT22;23741;49.446;8.754;2022-08-16T07:24:47;23.60;56.80
37910;DHT22;23741;49.446;8.754;2022-08-16T07:26:50;23.70;56.70
37910;DHT22;23741;49.446;8.754;2022-08-16T07:28:52;23.70;56.60
37910;DHT22;23741;49.446;8.754;2022-08-16T07:30:54;23.80;56.40
37910;DHT22;23741;49.446;8.754;2022-08-16T07:33:06;23.80;56.50
37910;DHT22;23741;49.446;8.754;2022-08-16T07:35:10;23.80;56.60
37910;DHT22;23741;49.446;8.754;2022-08-16T07:37:15;23.80;56.50
37910;DHT22;23741;49.446;8.754;2022-08-16T07:39:36;23.80;56.40
37910;DHT22;23741;49.446;8.754;2022-08-16T07:41:44;23.80;56.50
37910;DHT22;23741;49.446;8.754;2022-08-16T07:43:46;23.90;56.40
37910;DHT22;23741;49.446;8.754;2022-08-16T07:45:51;23.90;56.50
37910;DHT22;23741;49.446;8.754;2022-08-16T07:47:54;23.90;56.50
37910;DHT22;23741;49.446;8.754;2022-08-16T07:49:56;24.00;56.50
37910;DHT22;23741;49.446;8.754;2022-08-16T07:52:00;24.00;56.40
37910;DHT22;23741;49.446;8.754;2022-08-16T07:54:20;24.10;56.50
37910;DHT22;23741;49.446;8.754;2022-08-16T07:56:41;24.10;56.50
37910;DHT22;23741;49.446;8.754;2022-08-16T07:58:44;24.10;56.50
37910;DHT22;23741;49.446;8.754;2022-08-16T08:00:48;24.20;56.50
37910;DHT22;23741;49.446;8.754;2022-08-16T08:02:50;24.20;56.20
37910;DHT22;23741;49.446;8.754;2022-08-16T08:04:56;24.20;56.00
37910;DHT22;23741;49.446;8.754;2022-08-16T08:07:00;24.20;56.00
37910;DHT22;23741;49.446;8.754;2022-08-16T08:09:09;24.20;56.20
37910;DHT22;23741;49.446;8.754;2022-08-16T08:11:11;24.20;56.10
37910;DHT22;23741;49.446;8.754;2022-08-16T08:13:19;24.30;56.20
37910;DHT22;23741;49.446;8.754;2022-08-16T08:15:40;24.30;56.20
37910;DHT22;23741;49.446;8.754;2022-08-16T08:17:53;24.30;56.20
37910;DHT22;23741;49.446;8.754;2022-08-16T08:20:17;24.30;56.20
37910;DHT22;23741;49.446;8.754;2022-08-16T08:22:29;24.40;56.10
37910;DHT22;23741;49.446;8.754;2022-08-16T08:24:35;24.40;55.70
37910;DHT22;23741;49.446;8.754;2022-08-16T08:26:44;24.40;55.80
37910;DHT22;23741;49.446;8.754;2022-08-16T08:28:52;24.40;55.90
37910;DHT22;23741;49.446;8.754;2022-08-16T08:31:01;24.50;55.90
37910;DHT22;23741;49.446;8.754;2022-08-16T08:33:08;24.50;55.90
37910;DHT22;23741;49.446;8.754;2022-08-16T08:35:13;24.60;55.90
37910;DHT22;23741;49.446;8.754;2022-08-16T08:37:18;24.60;55.80
37910;DHT22;23741;49.446;8.754;2022-08-16T08:39:20;24.60;55.80
37910;DHT22;23741;49.446;8.754;2022-08-16T08:41:23;24.70;55.90
37910;DHT22;23741;49.446;8.754;2022-08-16T08:43:29;24.70;56.00
37910;DHT22;23741;49.446;8.754;2022-08-16T08:45:42;24.80;56.00
37910;DHT22;23741;49.446;8.754;2022-08-16T08:47:49;24.80;55.80
37910;DHT22;23741;49.446;8.754;2022-08-16T08:50:00;24.90;55.70
37910;DHT22;23741;49.446;8.754;2022-08-16T08:52:04;24.90;55.60
37910;DHT22;23741;49.446;8.754;2022-08-16T08:54:10;24.90;55.30
37910;DHT22;23741;49.446;8.754;2022-08-16T08:56:14;24.90;55.30
37910;DHT22;23741;49.446;8.754;2022-08-16T08:58:27;25.00;55.30
37910;DHT22;23741;49.446;8.754;2022-08-16T09:01:03;25.00;55.40
37910;DHT22;23741;49.446;8.754;2022-08-16T09:03:09;25.00;55.50
37910;DHT22;23741;49.446;8.754;2022-08-16T09:05:14;25.10;55.40
37910;DHT22;23741;49.446;8.754;2022-08-16T09:07:18;25.10;55.30
37910;DHT22;23741;49.446;8.754;2022-08-16T09:09:25;25.10;55.30
37910;DHT22;23741;49.446;8.754;2022-08-16T09:11:35;25.10;55.40
37910;DHT22;23741;49.446;8.754;2022-08-16T09:13:44;25.20;55.20
37910;DHT22;23741;49.446;8.754;2022-08-16T09:15:50;25.20;55.40
37910;DHT22;23741;49.446;8.754;2022-08-16T09:17:53;25.20;55.20
37910;DHT22;23741;49.446;8.754;2022-08-16T09:19:59;25.30;55.20
37910;DHT22;23741;49.446;8.754;2022-08-16T09:22:06;25.30;55.20
37910;DHT22;23741;49.446;8.754;2022-08-16T09:24:21;25.30;55.20
37910;DHT22;23741;49.446;8.754;2022-08-16T09:26:43;25.40;55.00
37910;DHT22;23741;49.446;8.754;2022-08-16T09:28:48;25.40;55.00
37910;DHT22;23741;49.446;8.754;2022-08-16T09:31:11;25.40;55.00
37910;DHT22;23741;49.446;8.754;2022-08-16T09:33:13;25.50;55.00
37910;DHT22;23741;49.446;8.754;2022-08-16T09:35:20;25.50;55.10
37910;DHT22;23741;49.446;8.754;2022-08-16T09:37:24;25.50;55.20
37910;DHT22;23741;49.446;8.754;2022-08-16T09:39:30;25.60;55.00
37910;DHT22;23741;49.446;8.754;2022-08-16T09:41:44;25.60;55.10
37910;DHT22;23741;49.446;8.754;2022-08-16T09:43:55;25.70;55.00
37910;DHT22;23741;49.446;8.754;2022-08-16T09:46:03;25.80;55.00
37910;DHT22;23741;49.446;8.754;2022-08-16T09:48:26;25.80;54.90
37910;DHT22;23741;49.446;8.754;2022-08-16T09:50:45;25.90;54.80
37910;DHT22;23741;49.446;8.754;2022-08-16T09:52:47;26.00;54.70
37910;DHT22;23741;49.446;8.754;2022-08-16T09:54:49;26.00;54.70
37910;DHT22;23741;49.446;8.754;2022-08-16T09:56:51;26.10;54.60
37910;DHT22;23741;49.446;8.754;2022-08-16T09:58:55;26.10;54.40
37910;DHT22;23741;49.446;8.754;2022-08-16T10:01:09;26.10;54.30
37910;DHT22;23741;49.446;8.754;2022-08-16T10:03:12;26.20;54.40
37910;DHT22;23741;49.446;8.754;2022-08-16T10:05:14;26.20;54.30
37910;DHT22;23741;49.446;8.754;2022-08-16T10:07:16;26.30;54.30
37910;DHT22;23741;49.446;8.754;2022-08-16T10:09:18;26.30;54.30
37910;DHT22;23741;49.446;8.754;2022-08-16T10:11:20;26.40;54.30
37910;DHT22;23741;49.446;8.754;2022-08-16T10:13:51;26.40;54.30
37910;DHT22;23741;49.446;8.754;2022-08-16T10:15:53;26.50;54.20
37910;DHT22;23741;49.446;8.754;2022-08-16T10:18:00;26.60;54.20
37910;DHT22;23741;49.446;8.754;2022-08-16T10:20:22;26.60;54.10
37910;DHT22;23741;49.446;8.754;2022-08-16T10:22:27;26.70;54.10
37910;DHT22;23741;49.446;8.754;2022-08-16T10:24:28;26.80;53.90
37910;DHT22;23741;49.446;8.754;2022-08-16T10:26:30;26.80;53.90
37910;DHT22;23741;49.446;8.754;2022-08-16T10:28:54;26.90;53.90
37910;DHT22;23741;49.446;8.754;2022-08-16T10:30:57;27.00;53.80
37910;DHT22;23741;49.446;8.754;2022-08-16T10:33:00;27.00;53.70
37910;DHT22;23741;49.446;8.754;2022-08-16T10:35:03;27.10;53.70
37910;DHT22;23741;49.446;8.754;2022-08-16T10:37:06;27.20;53.70
37910;DHT22;23741;49.446;8.754;2022-08-16T10:39:08;27.30;53.70
37910;DHT22;23741;49.446;8.754;2022-08-16T10:41:09;27.30;53.60
37910;DHT22;23741;49.446;8.754;2022-08-16T10:43:16;27.40;53.30
37910;DHT22;23741;49.446;8.754;2022-08-16T10:45:19;27.50;53.30
37910;DHT22;23741;49.446;8.754;2022-08-16T10:47:21;27.60;53.40
37910;DHT22;23741;49.446;8.754;2022-08-16T10:49:24;27.60;53.10
37910;DHT22;23741;49.446;8.754;2022-08-16T10:51:29;27.70;53.10
37910;DHT22;23741;49.446;8.754;2022-08-16T10:53:52;27.80;52.90
37910;DHT22;23741;49.446;8.754;2022-08-16T10:55:56;27.90;52.80
37910;DHT22;23741;49.446;8.754;2022-08-16T10:58:05;27.90;52.70
37910;DHT22;23741;49.446;8.754;2022-08-16T11:00:13;27.90;52.70
37910;DHT22;23741;49.446;8.754;2022-08-16T11:02:23;28.00;52.60
37910;DHT22;23741;49.446;8.754;2022-08-16T11:04:46;28.10;52.40
37910;DHT22;23741;49.446;8.754;2022-08-16T11:07:08;28.10;52.30
37910;DHT22;23741;49.446;8.754;2022-08-16T11:09:30;28.10;52.20
37910;DHT22;23741;49.446;8.754;2022-08-16T11:11:44;28.20;52.30
37910;DHT22;23741;49.446;8.754;2022-08-16T11:14:06;28.20;52.20
37910;DHT22;23741;49.446;8.754;2022-08-16T11:16:12;28.30;52.30
37910;DHT22;23741;49.446;8.754;2022-08-16T11:18:33;28.30;52.10
37910;DHT22;23741;49.446;8.754;2022-08-16T11:20:56;28.30;51.90
37910;DHT22;23741;49.446;8.754;2022-08-16T11:22:59;28.40;51.90
37910;DHT22;23741;49.446;8.754;2022-08-16T11:25:01;28.40;51.60
37910;DHT22;23741;49.446;8.754;2022-08-16T11:27:23;28.40;51.60
37910;DHT22;23741;49.446;8.754;2022-08-16T11:29:36;28.40;51.70
37910;DHT22;23741;49.446;8.754;2022-08-16T11:31:38;28.40;51.60
37910;DHT22;23741;49.446;8.754;2022-08-16T11:33:46;28.40;51.50
37910;DHT22;23741;49.446;8.754;2022-08-16T11:35:56;28.50;51.20
37910;DHT22;23741;49.446;8.754;2022-08-16T11:38:19;28.50;51.50
37910;DHT22;23741;49.446;8.754;2022-08-16T11:40:44;28.60;51.60
37910;DHT22;23741;49.446;8.754;2022-08-16T11:42:53;28.70;51.60
37910;DHT22;23741;49.446;8.754;2022-08-16T11:44:55;28.70;51.50
37910;DHT22;23741;49.446;8.754;2022-08-16T11:46:58;28.90;51.50
37910;DHT22;23741;49.446;8.754;2022-08-16T11:49:02;28.90;51.40
37910;DHT22;23741;49.446;8.754;2022-08-16T11:51:04;29.00;51.50
37910;DHT22;23741;49.446;8.754;2022-08-16T11:53:06;29.10;51.60
37910;DHT22;23741;49.446;8.754;2022-08-16T11:55:09;29.10;51.10
37910;DHT22;23741;49.446;8.754;2022-08-16T11:57:11;29.20;51.30
37910;DHT22;23741;49.446;8.754;2022-08-16T11:59:15;29.30;51.30
37910;DHT22;23741;49.446;8.754;2022-08-16T12:01:17;29.30;51.30
37910;DHT22;23741;49.446;8.754;2022-08-16T12:03:42;29.40;51.40
37910;DHT22;23741;49.446;8.754;2022-08-16T12:05:46;29.60;50.90
37910;DHT22;23741;49.446;8.754;2022-08-16T12:07:55;29.60;50.90
37910;DHT22;23741;49.446;8.754;2022-08-16T12:10:03;29.70;50.80
37910;DHT22;23741;49.446;8.754;2022-08-16T12:12:05;29.70;50.70
37910;DHT22;23741;49.446;8.754;2022-08-16T12:14:08;29.80;50.20
37910;DHT22;23741;49.446;8.754;2022-08-16T12:16:10;29.90;50.50
37910;DHT22;23741;49.446;8.754;2022-08-16T12:18:18;29.90;50.30
37910;DHT22;23741;49.446;8.754;2022-08-16T12:20:23;30.00;50.40
37910;DHT22;23741;49.446;8.754;2022-08-16T12:22:30;30.10;50.60
37910;DHT22;23741;49.446;8.754;2022-08-16T12:24:37;30.20;50.20
37910;DHT22;23741;49.446;8.754;2022-08-16T12:26:39;30.20;50.20
37910;DHT22;23741;49.446;8.754;2022-08-16T12:28:42;30.30;50.20
37910;DHT22;23741;49.446;8.754;2022-08-16T12:30:55;30.40;50.00
37910;DHT22;23741;49.446;8.754;2022-08-16T12:32:58;30.40;49.60
37910;DHT22;23741;49.446;8.754;2022-08-16T12:35:03;30.50;50.10
37910;DHT22;23741;49.446;8.754;2022-08-16T12:37:07;30.50;49.60
37910;DHT22;23741;49.446;8.754;2022-08-16T12:39:12;30.60;49.40
37910;DHT22;23741;49.446;8.754;2022-08-16T12:41:14;30.60;49.40
37910;DHT22;23741;49.446;8.754;2022-08-16T12:43:25;30.60;49.70
37910;DHT22;23741;49.446;8.754;2022-08-16T12:45:33;30.60;49.40
37910;DHT22;23741;49.446;8.754;2022-08-16T12:47:37;30.60;49.20
37910;DHT22;23741;49.446;8.754;2022-08-16T12:50:18;30.70;49.50
37910;DHT22;23741;49.446;8.754;2022-08-16T12:52:20;30.70;49.00
37910;DHT22;23741;49.446;8.754;2022-08-16T12:54:34;30.70;49.00
37910;DHT22;23741;49.446;8.754;2022-08-16T12:56:40;30.70;48.80
37910;DHT22;23741;49.446;8.754;2022-08-16T12:58:42;30.70;48.80
37910;DHT22;23741;49.446;8.754;2022-08-16T13:00:50;30.80;48.90
37910;DHT22;23741;49.446;8.754;2022-08-16T13:02:53;30.80;48.70
37910;DHT22;23741;49.446;8.754;2022-08-16T13:04:54;30.90;49.00
37910;DHT22;23741;49.446;8.754;2022-08-16T13:06:56;31.00;48.90
37910;DHT22;23741;49.446;8.754;2022-08-16T13:08:59;31.00;48.70
37910;DHT22;23741;49.446;8.754;2022-08-16T13:11:16;31.10;48.20
37910;DHT22;23741;49.446;8.754;2022-08-16T13:13:24;31.10;47.90
37910;DHT22;23741;49.446;8.754;2022-08-16T13:15:27;31.20;48.00
37910;DHT22;23741;49.446;8.754;2022-08-16T13:17:29;31.20;48.10
37910;DHT22;23741;49.446;8.754;2022-08-16T13:19:30;31.20;48.10
37910;DHT22;23741;49.446;8.754;2022-08-16T13:21:52;31.20;48.30
37910;DHT22;23741;49.446;8.754;2022-08-16T13:23:54;31.20;48.00
37910;DHT22;23741;49.446;8.754;2022-08-16T13:25:56;31.20;47.60
37910;DHT22;23741;49.446;8.754;2022-08-16T13:27:59;31.20;47.50
37910;DHT22;23741;49.446;8.754;2022-08-16T13:30:05;31.20;47.30
37910;DHT22;23741;49.446;8.754;2022-08-16T13:32:27;31.20;47.50
37910;DHT22;23741;49.446;8.754;2022-08-16T13:34:41;31.20;47.20
37910;DHT22;23741;49.446;8.754;2022-08-16T13:36:43;31.20;47.50
37910;DHT22;23741;49.446;8.754;2022-08-16T13:38:55;31.20;47.80